Salamanca, New York
Current Conditions -  °F | °C
As of 11:15 PM on Saturday 25 Oct 2014 (Local Time) from KOLE Reporting Station
Thunderstorm Thunderstorm  
Wind Chill: 50°   Ceiling: 2700
Heat Index: 50°   Visibility: 10mi
Dew Point: 50°   Wind: 9mph
Humidity: 100%   Direction: 290°WNW
Pressure: 29.64"   Gusts: 22mph
Location:  42.15°N, 78.71°W
Report Text: KOLE 260315Z AUTO 29008G19KT 260V330 10SM VCTS BKN027 OVC032 10/10 A2964 RMK AO2 LTG DSNT NE
Loading
Personal Weather Stations






























Interactive Weather Map New forecast layout! Learn more

10-Day Weather Forecast

Advertisements
Track Severe Weather on mobile